Tenes, Algeria
Current Conditions -  °F | °C
As of 1:00 AM on Saturday 29 Nov 2014 (Local Time) from DAOI Reporting Station
Light Rain Light Rain  
Wind Chill: 16°   Ceiling: 3000
Heat Index: 16°   Visibility: 6mi
Dew Point: 11°   Wind: 12mph
Humidity: 72%   Direction: 40°NE
Pressure: 29.32"   Gusts: NA
Location:  36.51°N, 1.31°E
Report Text: DAOI 290000Z 04010KT 9999 -RA BKN030 SCT100 16/11 Q0993
Loading
Personal Weather Stations






























Interactive Weather Map New forecast layout! Learn more

10-Day Weather Forecast

Advertisements
Track Severe Weather on mobile